Flight Track Log - Related Links

Times and Time Zones

All times are in EDT time to prevent confusion due to time zone crossing. See the CTL78 flight status page for this flight to view local times or setup timezone preferences in your user account.

Time Position Orientation Groundspeed Altitude Reporting Facility
EDT Latitude Longitude Course Direction KTS MPH feet Rate Location/Type
Fri 08:44:00 PM 43.3619 -84.0057 160° South  Level Estimated
Fri 08:45:00 PM 43.3366 -83.9838 148° Southeast  Level FlightAware Approximate
Fri 08:46:00 PM 43.3080 -83.9718 160° South  Level Estimated
Fri 08:47:00 PM 43.2807 -83.9553 156° South  Level FlightAware Approximate
Fri 08:48:00 PM 43.2533 -83.9388 156° South  Level FlightAware Approximate
Fri 08:49:00 PM 43.2247 -83.9271 163° South  Level Estimated
Fri 08:50:00 PM 43.1965 -83.9134 161° South  Level FlightAware Approximate
Fri 08:50:46 PM 43.0231 -83.8292 160° South 171 197 5,000  Level Cleveland Center
Fri 08:51:00 PM 43.1683 -83.8997 161° South  Level FlightAware Approximate
Fri 08:51:59 PM 42.9675 -83.8036 161° South 170 196 5,000  Level Cleveland Center
Fri 08:52:00 PM 43.1401 -83.8861 161° South  Level FlightAware Approximate
Fri 08:52:47 PM 42.9283 -83.7847 161° South 169 194 5,000  Level Cleveland Center
Fri 08:53:00 PM 43.1115 -83.8746 160° South  Level Estimated
Fri 08:53:48 PM 42.8853 -83.7653 162° South 171 197 5,000  Level Cleveland Center
Fri 08:54:00 PM 43.0835 -83.8603 160° South  Level FlightAware Approximate
Fri 08:54:49 PM 42.8442 -83.7436 159° South 169 194 5,000  Level Cleveland Center
Fri 08:55:00 PM 43.0555 -83.8461 160° South  Level FlightAware Approximate
Fri 08:55:50 PM 42.7947 -83.7239 164° South 171 197 5,000  Level Cleveland Center
Fri 08:56:00 PM 43.0275 -83.8318 160° South  Level FlightAware Approximate
Fri 08:56:51 PM 42.7472 -83.7075 166° South 172 198 5,000  Level Cleveland Center
Fri 08:57:45 PM 42.7058 -83.6969 169° South 172 198 5,000  Level Cleveland Center
Fri 08:58:46 PM 42.6583 -83.6775 163° South 172 198 5,000  Level Cleveland Center
Fri 08:59:53 PM 42.6067 -83.6639 169° South 173 199 5,000 -248 Level Cleveland Center
Fri 09:00:47 PM 42.5611 -83.6475 165° South 184 212 4,500 -472 Descending Cleveland Center
Fri 09:02:00 PM 42.4969 -83.6303 169° South 190 219 4,000 -493 Descending Cleveland Center
Fri 09:03:01 PM 42.4472 -83.6194 171° South 179 206 3,400 -443 Descending Cleveland Center
Fri 09:04:02 PM 42.4017 -83.6061 168° South 170 196 3,100 -397 Descending Cleveland Center
Fri 09:05:02 PM 42.3519 -83.5981 173° South 172 198 2,600 -522 Descending Cleveland Center
Fri 09:05:57 PM 42.3081 -83.5958 178° South 174 200 2,100 -443 Descending Cleveland Center
Fri 09:07:04 PM 42.2692 -83.5717 155° Southeast 120 138 1,700 -358 Descending Cleveland Center
Fri 09:09:00 PM 42.2393 -83.5310 160° South  Level Estimated
Fri 09:16:00 PM 42.2393 -83.5310 160° South  Level Estimated
Fri 09:17:00 PM 42.2393 -83.5310 160° South  Level Estimated

Login

Don't have an account? Register now (free) for customized features, flight alerts, and more!